sensor_id;sensor_type;location;lat;lon;timestamp;temperature;humidity
33271;DHT22;53180;51.344;6.152;2023-02-07T00:01:38;0.20;90.00
33271;DHT22;53180;51.344;6.152;2023-02-07T00:04:07;0.20;90.10
33271;DHT22;53180;51.344;6.152;2023-02-07T00:06:35;0.20;90.10
33271;DHT22;53180;51.344;6.152;2023-02-07T00:09:07;0.10;90.30
33271;DHT22;53180;51.344;6.152;2023-02-07T00:11:38;0.00;89.90
33271;DHT22;53180;51.344;6.152;2023-02-07T00:14:09;0.00;90.10
33271;DHT22;53180;51.344;6.152;2023-02-07T00:16:39;0.00;90.20
33271;DHT22;53180;51.344;6.152;2023-02-07T00:19:08;0.00;90.10
33271;DHT22;53180;51.344;6.152;2023-02-07T00:21:36;0.00;89.50
33271;DHT22;53180;51.344;6.152;2023-02-07T00:24:05;-0.20;89.40
33271;DHT22;53180;51.344;6.152;2023-02-07T00:26:33;-0.20;89.70
33271;DHT22;53180;51.344;6.152;2023-02-07T00:29:04;-0.20;90.00
33271;DHT22;53180;51.344;6.152;2023-02-07T00:31:33;-0.20;90.30
33271;DHT22;53180;51.344;6.152;2023-02-07T00:34:04;-0.40;89.80
33271;DHT22;53180;51.344;6.152;2023-02-07T00:36:34;-0.40;90.00
33271;DHT22;53180;51.344;6.152;2023-02-07T00:39:05;-0.30;90.10
33271;DHT22;53180;51.344;6.152;2023-02-07T00:41:33;-0.30;90.40
33271;DHT22;53180;51.344;6.152;2023-02-07T00:44:04;-0.30;90.20
33271;DHT22;53180;51.344;6.152;2023-02-07T00:46:33;-0.50;89.80
33271;DHT22;53180;51.344;6.152;2023-02-07T00:49:03;-0.50;90.10
33271;DHT22;53180;51.344;6.152;2023-02-07T00:51:32;-0.50;90.10
33271;DHT22;53180;51.344;6.152;2023-02-07T00:54:01;-0.50;90.30
33271;DHT22;53180;51.344;6.152;2023-02-07T00:56:30;-0.60;89.70
33271;DHT22;53180;51.344;6.152;2023-02-07T00:58:59;-0.70;89.60
33271;DHT22;53180;51.344;6.152;2023-02-07T01:01:29;-0.80;89.70
33271;DHT22;53180;51.344;6.152;2023-02-07T01:03:57;-0.80;89.80
33271;DHT22;53180;51.344;6.152;2023-02-07T01:06:26;-0.80;89.70
33271;DHT22;53180;51.344;6.152;2023-02-07T01:08:56;-0.90;89.50
33271;DHT22;53180;51.344;6.152;2023-02-07T01:11:25;-1.00;89.70
33271;DHT22;53180;51.344;6.152;2023-02-07T01:13:54;-1.00;89.90
33271;DHT22;53180;51.344;6.152;2023-02-07T01:16:26;-1.00;89.80
33271;DHT22;53180;51.344;6.152;2023-02-07T01:18:57;-1.00;90.00
33271;DHT22;53180;51.344;6.152;2023-02-07T01:21:27;-0.90;90.30
33271;DHT22;53180;51.344;6.152;2023-02-07T01:23:56;-0.90;90.40
33271;DHT22;53180;51.344;6.152;2023-02-07T01:26:25;-0.80;90.80
33271;DHT22;53180;51.344;6.152;2023-02-07T01:28:54;-0.70;91.20
33271;DHT22;53180;51.344;6.152;2023-02-07T01:31:23;-0.60;91.50
33271;DHT22;53180;51.344;6.152;2023-02-07T01:33:53;-0.50;91.60
33271;DHT22;53180;51.344;6.152;2023-02-07T01:36:24;-0.50;91.70
33271;DHT22;53180;51.344;6.152;2023-02-07T01:38:53;-0.40;91.80
33271;DHT22;53180;51.344;6.152;2023-02-07T01:41:23;-0.30;92.10
33271;DHT22;53180;51.344;6.152;2023-02-07T01:43:58;-0.20;92.20
33271;DHT22;53180;51.344;6.152;2023-02-07T01:46:30;-0.10;92.30
33271;DHT22;53180;51.344;6.152;2023-02-07T01:49:00;0.00;92.40
33271;DHT22;53180;51.344;6.152;2023-02-07T01:51:32;0.00;92.40
33271;DHT22;53180;51.344;6.152;2023-02-07T01:54:05;0.00;92.50
33271;DHT22;53180;51.344;6.152;2023-02-07T01:56:38;0.00;92.60
33271;DHT22;53180;51.344;6.152;2023-02-07T01:59:07;0.10;92.60
33271;DHT22;53180;51.344;6.152;2023-02-07T02:01:36;0.10;92.60
33271;DHT22;53180;51.344;6.152;2023-02-07T02:04:04;0.00;92.50
33271;DHT22;53180;51.344;6.152;2023-02-07T02:06:34;0.10;92.50
33271;DHT22;53180;51.344;6.152;2023-02-07T02:09:08;0.10;92.50
33271;DHT22;53180;51.344;6.152;2023-02-07T02:12:03;0.10;92.50
33271;DHT22;53180;51.344;6.152;2023-02-07T02:15:02;0.00;92.30
33271;DHT22;53180;51.344;6.152;2023-02-07T02:17:49;0.00;92.10
33271;DHT22;53180;51.344;6.152;2023-02-07T02:24:50;-0.10;91.90
33271;DHT22;53180;51.344;6.152;2023-02-07T02:27:57;-0.10;91.90
33271;DHT22;53180;51.344;6.152;2023-02-07T02:30:45;-0.20;91.40
33271;DHT22;53180;51.344;6.152;2023-02-07T02:33:28;-0.40;91.20
33271;DHT22;53180;51.344;6.152;2023-02-07T02:36:09;-0.50;90.80
33271;DHT22;53180;51.344;6.152;2023-02-07T02:38:52;-0.40;91.10
33271;DHT22;53180;51.344;6.152;2023-02-07T02:41:28;-0.60;90.60
33271;DHT22;53180;51.344;6.152;2023-02-07T02:44:03;-0.70;89.90
33271;DHT22;53180;51.344;6.152;2023-02-07T02:46:36;-0.90;89.80
33271;DHT22;53180;51.344;6.152;2023-02-07T02:49:07;-1.00;89.70
33271;DHT22;53180;51.344;6.152;2023-02-07T02:51:37;-1.10;89.70
33271;DHT22;53180;51.344;6.152;2023-02-07T02:54:25;-1.20;89.80
33271;DHT22;53180;51.344;6.152;2023-02-07T02:57:15;-1.20;89.80
33271;DHT22;53180;51.344;6.152;2023-02-07T03:00:23;-1.10;90.00
33271;DHT22;53180;51.344;6.152;2023-02-07T03:03:17;-1.20;89.90
33271;DHT22;53180;51.344;6.152;2023-02-07T03:06:05;-1.20;90.00
33271;DHT22;53180;51.344;6.152;2023-02-07T03:08:46;-1.20;90.00
33271;DHT22;53180;51.344;6.152;2023-02-07T03:11:21;-1.10;90.10
33271;DHT22;53180;51.344;6.152;2023-02-07T03:13:59;-1.10;90.10
33271;DHT22;53180;51.344;6.152;2023-02-07T03:16:33;-1.10;90.20
33271;DHT22;53180;51.344;6.152;2023-02-07T03:19:06;-1.10;90.30
33271;DHT22;53180;51.344;6.152;2023-02-07T03:21:42;-1.10;90.40
33271;DHT22;53180;51.344;6.152;2023-02-07T03:24:14;-1.10;90.10
33271;DHT22;53180;51.344;6.152;2023-02-07T03:26:45;-1.10;90.20
33271;DHT22;53180;51.344;6.152;2023-02-07T03:29:15;-1.10;90.20
33271;DHT22;53180;51.344;6.152;2023-02-07T03:31:47;-1.20;90.10
33271;DHT22;53180;51.344;6.152;2023-02-07T03:34:21;-1.20;90.30
33271;DHT22;53180;51.344;6.152;2023-02-07T03:36:56;-1.10;90.50
33271;DHT22;53180;51.344;6.152;2023-02-07T03:39:27;-1.00;90.60
33271;DHT22;53180;51.344;6.152;2023-02-07T03:41:58;-1.00;90.60
33271;DHT22;53180;51.344;6.152;2023-02-07T03:44:29;-1.00;90.70
33271;DHT22;53180;51.344;6.152;2023-02-07T03:47:00;-1.00;90.70
33271;DHT22;53180;51.344;6.152;2023-02-07T03:49:28;-1.00;90.70
33271;DHT22;53180;51.344;6.152;2023-02-07T03:51:58;-1.00;90.60
33271;DHT22;53180;51.344;6.152;2023-02-07T03:54:27;-1.00;90.60
33271;DHT22;53180;51.344;6.152;2023-02-07T03:56:55;-1.00;90.50
33271;DHT22;53180;51.344;6.152;2023-02-07T03:59:23;-1.10;90.50
33271;DHT22;53180;51.344;6.152;2023-02-07T04:01:52;-1.00;90.50
33271;DHT22;53180;51.344;6.152;2023-02-07T04:04:21;-1.20;89.90
33271;DHT22;53180;51.344;6.152;2023-02-07T04:06:49;-1.30;89.20
33271;DHT22;53180;51.344;6.152;2023-02-07T04:09:19;-1.40;89.10
33271;DHT22;53180;51.344;6.152;2023-02-07T04:11:48;-1.40;89.40
33271;DHT22;53180;51.344;6.152;2023-02-07T04:14:17;-1.40;89.70
33271;DHT22;53180;51.344;6.152;2023-02-07T04:16:48;-1.40;90.00
33271;DHT22;53180;51.344;6.152;2023-02-07T04:19:16;-1.50;89.70
33271;DHT22;53180;51.344;6.152;2023-02-07T04:21:45;-1.50;89.30
33271;DHT22;53180;51.344;6.152;2023-02-07T04:24:13;-1.60;88.90
33271;DHT22;53180;51.344;6.152;2023-02-07T04:26:45;-1.70;89.00
33271;DHT22;53180;51.344;6.152;2023-02-07T04:29:14;-1.60;89.20
33271;DHT22;53180;51.344;6.152;2023-02-07T04:31:42;-1.70;89.40
33271;DHT22;53180;51.344;6.152;2023-02-07T04:34:11;-1.70;89.60
33271;DHT22;53180;51.344;6.152;2023-02-07T04:36:39;-1.70;90.00
33271;DHT22;53180;51.344;6.152;2023-02-07T04:39:08;-1.70;90.10
33271;DHT22;53180;51.344;6.152;2023-02-07T04:41:36;-1.60;90.30
33271;DHT22;53180;51.344;6.152;2023-02-07T04:44:06;-1.70;90.30
33271;DHT22;53180;51.344;6.152;2023-02-07T04:46:34;-1.70;90.40
33271;DHT22;53180;51.344;6.152;2023-02-07T04:49:03;-1.80;90.00
33271;DHT22;53180;51.344;6.152;2023-02-07T04:51:34;-1.80;89.90
33271;DHT22;53180;51.344;6.152;2023-02-07T04:54:02;-1.80;89.80
33271;DHT22;53180;51.344;6.152;2023-02-07T04:56:31;-1.90;89.00
33271;DHT22;53180;51.344;6.152;2023-02-07T04:59:02;-2.00;88.30
33271;DHT22;53180;51.344;6.152;2023-02-07T05:01:31;-2.10;88.20
33271;DHT22;53180;51.344;6.152;2023-02-07T05:04:00;-2.10;88.40
33271;DHT22;53180;51.344;6.152;2023-02-07T05:06:29;-2.20;88.60
33271;DHT22;53180;51.344;6.152;2023-02-07T05:08:57;-2.20;88.80
33271;DHT22;53180;51.344;6.152;2023-02-07T05:11:26;-2.10;89.10
33271;DHT22;53180;51.344;6.152;2023-02-07T05:13:54;-2.10;89.40
33271;DHT22;53180;51.344;6.152;2023-02-07T05:16:22;-2.10;89.60
33271;DHT22;53180;51.344;6.152;2023-02-07T05:18:52;-2.10;89.60
33271;DHT22;53180;51.344;6.152;2023-02-07T05:21:21;-2.20;89.10
33271;DHT22;53180;51.344;6.152;2023-02-07T05:23:49;-2.20;88.50
33271;DHT22;53180;51.344;6.152;2023-02-07T05:26:17;-2.30;88.50
33271;DHT22;53180;51.344;6.152;2023-02-07T05:28:46;-2.30;88.70
33271;DHT22;53180;51.344;6.152;2023-02-07T05:31:15;-2.30;88.90
33271;DHT22;53180;51.344;6.152;2023-02-07T05:33:43;-2.30;89.20
33271;DHT22;53180;51.344;6.152;2023-02-07T05:36:12;-2.30;89.30
33271;DHT22;53180;51.344;6.152;2023-02-07T05:38:40;-2.30;89.10
33271;DHT22;53180;51.344;6.152;2023-02-07T05:41:08;-2.30;89.00
33271;DHT22;53180;51.344;6.152;2023-02-07T05:43:40;-2.30;88.60
33271;DHT22;53180;51.344;6.152;2023-02-07T05:46:08;-2.40;88.70
33271;DHT22;53180;51.344;6.152;2023-02-07T05:48:37;-2.40;89.00
33271;DHT22;53180;51.344;6.152;2023-02-07T05:51:05;-2.40;88.60
33271;DHT22;53180;51.344;6.152;2023-02-07T05:53:35;-2.40;88.40
33271;DHT22;53180;51.344;6.152;2023-02-07T05:56:04;-2.50;88.20
33271;DHT22;53180;51.344;6.152;2023-02-07T05:58:32;-2.50;88.40
33271;DHT22;53180;51.344;6.152;2023-02-07T06:01:01;-2.50;88.60
33271;DHT22;53180;51.344;6.152;2023-02-07T06:03:29;-2.40;89.00
33271;DHT22;53180;51.344;6.152;2023-02-07T06:05:58;-2.40;89.10
33271;DHT22;53180;51.344;6.152;2023-02-07T06:08:26;-2.30;89.20
33271;DHT22;53180;51.344;6.152;2023-02-07T06:10:56;-2.30;89.40
33271;DHT22;53180;51.344;6.152;2023-02-07T06:13:24;-2.20;89.50
33271;DHT22;53180;51.344;6.152;2023-02-07T06:15:52;-2.10;89.60
33271;DHT22;53180;51.344;6.152;2023-02-07T06:18:21;-2.10;89.70
33271;DHT22;53180;51.344;6.152;2023-02-07T06:20:50;-2.10;89.80
33271;DHT22;53180;51.344;6.152;2023-02-07T06:23:19;-2.00;89.80
33271;DHT22;53180;51.344;6.152;2023-02-07T06:25:49;-2.00;89.90
33271;DHT22;53180;51.344;6.152;2023-02-07T06:28:18;-2.00;89.90
33271;DHT22;53180;51.344;6.152;2023-02-07T06:30:47;-2.00;89.90
33271;DHT22;53180;51.344;6.152;2023-02-07T06:33:17;-2.00;89.90
33271;DHT22;53180;51.344;6.152;2023-02-07T06:35:46;-1.90;89.90
33271;DHT22;53180;51.344;6.152;2023-02-07T06:38:15;-1.90;89.90
33271;DHT22;53180;51.344;6.152;2023-02-07T06:40:45;-1.90;90.00
33271;DHT22;53180;51.344;6.152;2023-02-07T06:43:13;-1.90;90.00
33271;DHT22;53180;51.344;6.152;2023-02-07T06:45:43;-1.80;90.00
33271;DHT22;53180;51.344;6.152;2023-02-07T06:48:12;-1.80;90.00
33271;DHT22;53180;51.344;6.152;2023-02-07T06:50:40;-1.80;90.00
33271;DHT22;53180;51.344;6.152;2023-02-07T06:53:09;-1.80;90.00
33271;DHT22;53180;51.344;6.152;2023-02-07T06:55:38;-1.80;90.00
33271;DHT22;53180;51.344;6.152;2023-02-07T06:58:07;-1.80;90.00
33271;DHT22;53180;51.344;6.152;2023-02-07T07:00:35;-1.80;90.00
33271;DHT22;53180;51.344;6.152;2023-02-07T07:03:05;-1.80;90.10
33271;DHT22;53180;51.344;6.152;2023-02-07T07:05:34;-1.80;90.00
33271;DHT22;53180;51.344;6.152;2023-02-07T07:08:03;-1.80;90.00
33271;DHT22;53180;51.344;6.152;2023-02-07T07:10:31;-1.80;90.00
33271;DHT22;53180;51.344;6.152;2023-02-07T07:13:00;-1.80;90.10
33271;DHT22;53180;51.344;6.152;2023-02-07T07:15:28;-1.70;90.00
33271;DHT22;53180;51.344;6.152;2023-02-07T07:17:57;-1.80;90.00
33271;DHT22;53180;51.344;6.152;2023-02-07T07:20:27;-1.70;90.00
33271;DHT22;53180;51.344;6.152;2023-02-07T07:22:55;-1.70;90.00
33271;DHT22;53180;51.344;6.152;2023-02-07T07:25:24;-1.70;90.00
33271;DHT22;53180;51.344;6.152;2023-02-07T07:27:52;-1.70;90.00
33271;DHT22;53180;51.344;6.152;2023-02-07T07:30:20;-1.70;90.00
33271;DHT22;53180;51.344;6.152;2023-02-07T07:32:49;-1.70;90.00
33271;DHT22;53180;51.344;6.152;2023-02-07T07:35:18;-1.70;90.10
33271;DHT22;53180;51.344;6.152;2023-02-07T07:37:48;-1.60;90.20
33271;DHT22;53180;51.344;6.152;2023-02-07T07:40:16;-1.50;90.20
33271;DHT22;53180;51.344;6.152;2023-02-07T07:42:45;-1.50;90.20
33271;DHT22;53180;51.344;6.152;2023-02-07T07:45:13;-1.50;90.30
33271;DHT22;53180;51.344;6.152;2023-02-07T07:47:42;-1.40;90.30
33271;DHT22;53180;51.344;6.152;2023-02-07T07:50:10;-1.40;90.40
33271;DHT22;53180;51.344;6.152;2023-02-07T07:52:39;-1.30;90.40
33271;DHT22;53180;51.344;6.152;2023-02-07T07:55:10;-1.30;90.40
33271;DHT22;53180;51.344;6.152;2023-02-07T07:57:38;-1.20;90.40
33271;DHT22;53180;51.344;6.152;2023-02-07T08:00:08;-1.10;90.40
33271;DHT22;53180;51.344;6.152;2023-02-07T08:02:37;-1.10;90.50
33271;DHT22;53180;51.344;6.152;2023-02-07T08:05:05;-1.00;90.50
33271;DHT22;53180;51.344;6.152;2023-02-07T08:07:34;-0.90;90.50
33271;DHT22;53180;51.344;6.152;2023-02-07T08:10:03;-0.80;90.40
33271;DHT22;53180;51.344;6.152;2023-02-07T08:12:33;-0.80;90.40
33271;DHT22;53180;51.344;6.152;2023-02-07T08:15:02;-0.70;90.40
33271;DHT22;53180;51.344;6.152;2023-02-07T08:17:33;-0.60;90.30
33271;DHT22;53180;51.344;6.152;2023-02-07T08:20:03;-0.40;90.30
33271;DHT22;53180;51.344;6.152;2023-02-07T08:22:31;-0.40;90.10
33271;DHT22;53180;51.344;6.152;2023-02-07T08:25:00;-0.30;89.90
33271;DHT22;53180;51.344;6.152;2023-02-07T08:27:28;-0.20;90.00
33271;DHT22;53180;51.344;6.152;2023-02-07T08:29:58;-0.10;89.90
33271;DHT22;53180;51.344;6.152;2023-02-07T08:32:27;0.00;89.80
33271;DHT22;53180;51.344;6.152;2023-02-07T08:34:56;0.00;89.50
33271;DHT22;53180;51.344;6.152;2023-02-07T08:37:24;0.10;89.40
33271;DHT22;53180;51.344;6.152;2023-02-07T08:39:52;0.20;89.10
33271;DHT22;53180;51.344;6.152;2023-02-07T08:42:21;0.40;89.00
33271;DHT22;53180;51.344;6.152;2023-02-07T08:44:51;0.50;88.60
33271;DHT22;53180;51.344;6.152;2023-02-07T08:47:21;0.60;88.40
33271;DHT22;53180;51.344;6.152;2023-02-07T08:49:49;0.70;88.10
33271;DHT22;53180;51.344;6.152;2023-02-07T08:52:18;0.80;88.00
33271;DHT22;53180;51.344;6.152;2023-02-07T08:54:46;0.90;87.70
33271;DHT22;53180;51.344;6.152;2023-02-07T08:57:15;0.90;87.50
33271;DHT22;53180;51.344;6.152;2023-02-07T08:59:45;1.10;87.60
33271;DHT22;53180;51.344;6.152;2023-02-07T09:02:14;1.20;87.30
33271;DHT22;53180;51.344;6.152;2023-02-07T09:04:44;1.30;87.20
33271;DHT22;53180;51.344;6.152;2023-02-07T09:07:13;1.40;87.30
33271;DHT22;53180;51.344;6.152;2023-02-07T09:09:41;1.50;86.70
33271;DHT22;53180;51.344;6.152;2023-02-07T09:12:11;1.60;86.40
33271;DHT22;53180;51.344;6.152;2023-02-07T09:14:40;1.70;85.50
33271;DHT22;53180;51.344;6.152;2023-02-07T09:17:08;1.80;85.70
33271;DHT22;53180;51.344;6.152;2023-02-07T09:19:36;2.00;85.50
33271;DHT22;53180;51.344;6.152;2023-02-07T09:22:06;2.10;85.10
33271;DHT22;53180;51.344;6.152;2023-02-07T09:24:35;2.30;84.90
33271;DHT22;53180;51.344;6.152;2023-02-07T09:27:03;2.40;84.40
33271;DHT22;53180;51.344;6.152;2023-02-07T09:29:32;2.50;84.30
33271;DHT22;53180;51.344;6.152;2023-02-07T09:32:00;2.60;84.30
33271;DHT22;53180;51.344;6.152;2023-02-07T09:34:31;2.80;83.70
33271;DHT22;53180;51.344;6.152;2023-02-07T09:36:59;2.90;82.80
33271;DHT22;53180;51.344;6.152;2023-02-07T09:39:29;3.00;82.20
33271;DHT22;53180;51.344;6.152;2023-02-07T09:42:07;3.00;80.80
33271;DHT22;53180;51.344;6.152;2023-02-07T09:44:48;3.10;81.50
33271;DHT22;53180;51.344;6.152;2023-02-07T09:47:22;3.20;80.40
33271;DHT22;53180;51.344;6.152;2023-02-07T09:49:54;3.10;79.70
33271;DHT22;53180;51.344;6.152;2023-02-07T09:52:29;3.20;79.80
33271;DHT22;53180;51.344;6.152;2023-02-07T09:55:03;3.20;79.90
33271;DHT22;53180;51.344;6.152;2023-02-07T09:57:38;3.40;80.90
33271;DHT22;53180;51.344;6.152;2023-02-07T10:00:19;3.40;78.50
33271;DHT22;53180;51.344;6.152;2023-02-07T10:02:53;3.30;78.30
33271;DHT22;53180;51.344;6.152;2023-02-07T10:05:28;3.40;78.60
33271;DHT22;53180;51.344;6.152;2023-02-07T10:08:01;3.50;78.60
33271;DHT22;53180;51.344;6.152;2023-02-07T10:10:38;3.60;78.60
33271;DHT22;53180;51.344;6.152;2023-02-07T10:13:29;3.70;78.40
33271;DHT22;53180;51.344;6.152;2023-02-07T10:16:25;3.70;77.60
33271;DHT22;53180;51.344;6.152;2023-02-07T10:19:09;3.70;77.50
33271;DHT22;53180;51.344;6.152;2023-02-07T10:21:52;3.80;77.80
33271;DHT22;53180;51.344;6.152;2023-02-07T10:24:36;3.90;77.30
33271;DHT22;53180;51.344;6.152;2023-02-07T10:27:39;4.10;77.70
33271;DHT22;53180;51.344;6.152;2023-02-07T10:30:14;4.40;75.40
33271;DHT22;53180;51.344;6.152;2023-02-07T10:32:44;4.40;75.70
33271;DHT22;53180;51.344;6.152;2023-02-07T10:35:17;4.50;76.00
33271;DHT22;53180;51.344;6.152;2023-02-07T10:37:49;4.60;75.30
33271;DHT22;53180;51.344;6.152;2023-02-07T10:40:23;4.60;74.00
33271;DHT22;53180;51.344;6.152;2023-02-07T10:42:59;4.80;74.10
33271;DHT22;53180;51.344;6.152;2023-02-07T10:45:29;4.90;73.40
33271;DHT22;53180;51.344;6.152;2023-02-07T10:47:58;4.70;72.20
33271;DHT22;53180;51.344;6.152;2023-02-07T10:50:26;4.70;72.30
33271;DHT22;53180;51.344;6.152;2023-02-07T10:52:57;4.70;72.80
33271;DHT22;53180;51.344;6.152;2023-02-07T10:55:41;4.80;72.80
33271;DHT22;53180;51.344;6.152;2023-02-07T10:58:15;5.00;72.60
33271;DHT22;53180;51.344;6.152;2023-02-07T11:00:50;5.10;70.90
33271;DHT22;53180;51.344;6.152;2023-02-07T11:03:20;5.40;71.10
33271;DHT22;53180;51.344;6.152;2023-02-07T11:05:55;5.60;70.00
33271;DHT22;53180;51.344;6.152;2023-02-07T11:08:26;6.00;70.20
33271;DHT22;53180;51.344;6.152;2023-02-07T11:10:57;6.20;69.10
33271;DHT22;53180;51.344;6.152;2023-02-07T11:13:29;6.30;69.00
33271;DHT22;53180;51.344;6.152;2023-02-07T11:16:00;6.40;68.10
33271;DHT22;53180;51.344;6.152;2023-02-07T11:18:39;6.60;67.60
33271;DHT22;53180;51.344;6.152;2023-02-07T11:21:26;6.70;67.10
33271;DHT22;53180;51.344;6.152;2023-02-07T11:23:59;6.90;65.50
33271;DHT22;53180;51.344;6.152;2023-02-07T11:26:29;7.00;66.10
33271;DHT22;53180;51.344;6.152;2023-02-07T11:29:06;7.10;66.30
33271;DHT22;53180;51.344;6.152;2023-02-07T11:31:44;7.20;65.80
33271;DHT22;53180;51.344;6.152;2023-02-07T11:34:28;7.20;65.20
33271;DHT22;53180;51.344;6.152;2023-02-07T11:37:19;7.00;64.50
33271;DHT22;53180;51.344;6.152;2023-02-07T11:39:51;7.00;65.60
33271;DHT22;53180;51.344;6.152;2023-02-07T11:42:24;7.10;65.70
33271;DHT22;53180;51.344;6.152;2023-02-07T11:44:54;7.20;65.00
33271;DHT22;53180;51.344;6.152;2023-02-07T11:47:25;7.20;64.60
33271;DHT22;53180;51.344;6.152;2023-02-07T11:49:57;7.20;64.50
33271;DHT22;53180;51.344;6.152;2023-02-07T11:52:26;7.50;63.90
33271;DHT22;53180;51.344;6.152;2023-02-07T11:54:59;7.60;62.80
33271;DHT22;53180;51.344;6.152;2023-02-07T11:57:31;7.60;64.10
33271;DHT22;53180;51.344;6.152;2023-02-07T12:00:03;7.80;63.90
33271;DHT22;53180;51.344;6.152;2023-02-07T12:02:34;7.70;63.40
33271;DHT22;53180;51.344;6.152;2023-02-07T12:05:14;7.50;62.10
33271;DHT22;53180;51.344;6.152;2023-02-07T12:07:48;7.40;62.20
33271;DHT22;53180;51.344;6.152;2023-02-07T12:10:22;7.10;60.70
33271;DHT22;53180;51.344;6.152;2023-02-07T12:12:55;6.90;60.70
33271;DHT22;53180;51.344;6.152;2023-02-07T12:15:31;6.80;62.70
33271;DHT22;53180;51.344;6.152;2023-02-07T12:18:06;6.80;63.50
33271;DHT22;53180;51.344;6.152;2023-02-07T12:20:43;6.90;62.50
33271;DHT22;53180;51.344;6.152;2023-02-07T12:23:18;6.90;63.00
33271;DHT22;53180;51.344;6.152;2023-02-07T12:26:16;6.70;63.40
33271;DHT22;53180;51.344;6.152;2023-02-07T12:28:54;6.50;63.70
33271;DHT22;53180;51.344;6.152;2023-02-07T12:31:42;6.50;64.80
33271;DHT22;53180;51.344;6.152;2023-02-07T12:34:22;6.60;64.30
33271;DHT22;53180;51.344;6.152;2023-02-07T12:36:58;6.40;64.30
33271;DHT22;53180;51.344;6.152;2023-02-07T12:39:33;6.30;65.20
33271;DHT22;53180;51.344;6.152;2023-02-07T12:42:23;6.30;64.30
33271;DHT22;53180;51.344;6.152;2023-02-07T12:44:58;6.20;62.80
33271;DHT22;53180;51.344;6.152;2023-02-07T12:47:40;6.20;63.90
33271;DHT22;53180;51.344;6.152;2023-02-07T12:50:23;6.20;64.30
33271;DHT22;53180;51.344;6.152;2023-02-07T12:53:13;6.30;63.70
33271;DHT22;53180;51.344;6.152;2023-02-07T12:55:56;6.30;63.50
33271;DHT22;53180;51.344;6.152;2023-02-07T12:58:40;6.30;63.70
33271;DHT22;53180;51.344;6.152;2023-02-07T13:01:18;6.20;63.10
33271;DHT22;53180;51.344;6.152;2023-02-07T13:04:17;6.10;63.70
33271;DHT22;53180;51.344;6.152;2023-02-07T13:07:04;6.00;62.90
33271;DHT22;53180;51.344;6.152;2023-02-07T13:09:42;6.00;62.80
33271;DHT22;53180;51.344;6.152;2023-02-07T13:12:22;6.00;62.60
33271;DHT22;53180;51.344;6.152;2023-02-07T13:15:04;6.00;62.50
33271;DHT22;53180;51.344;6.152;2023-02-07T13:17:39;6.00;62.70
33271;DHT22;53180;51.344;6.152;2023-02-07T13:20:25;6.00;62.40
33271;DHT22;53180;51.344;6.152;2023-02-07T13:23:14;5.90;62.10
33271;DHT22;53180;51.344;6.152;2023-02-07T13:25:46;5.90;62.00
33271;DHT22;53180;51.344;6.152;2023-02-07T13:28:21;5.90;62.60
33271;DHT22;53180;51.344;6.152;2023-02-07T13:30:53;5.90;63.30
33271;DHT22;53180;51.344;6.152;2023-02-07T13:33:28;5.80;61.60
33271;DHT22;53180;51.344;6.152;2023-02-07T13:36:04;5.80;62.90
33271;DHT22;53180;51.344;6.152;2023-02-07T13:38:58;5.80;63.00
33271;DHT22;53180;51.344;6.152;2023-02-07T13:41:38;5.80;63.20
33271;DHT22;53180;51.344;6.152;2023-02-07T13:44:17;5.80;64.00
33271;DHT22;53180;51.344;6.152;2023-02-07T13:47:08;5.80;64.20
33271;DHT22;53180;51.344;6.152;2023-02-07T13:49:59;5.80;63.90
33271;DHT22;53180;51.344;6.152;2023-02-07T13:52:36;5.80;62.90
33271;DHT22;53180;51.344;6.152;2023-02-07T13:55:16;5.70;63.80
33271;DHT22;53180;51.344;6.152;2023-02-07T13:57:49;5.60;63.80
33271;DHT22;53180;51.344;6.152;2023-02-07T14:00:59;5.60;63.70
33271;DHT22;53180;51.344;6.152;2023-02-07T14:03:36;5.60;63.30
33271;DHT22;53180;51.344;6.152;2023-02-07T14:06:20;5.60;62.00
33271;DHT22;53180;51.344;6.152;2023-02-07T14:09:00;5.60;62.30
33271;DHT22;53180;51.344;6.152;2023-02-07T14:11:37;5.60;63.00
33271;DHT22;53180;51.344;6.152;2023-02-07T14:14:22;5.60;63.30
33271;DHT22;53180;51.344;6.152;2023-02-07T14:16:54;5.60;63.10
33271;DHT22;53180;51.344;6.152;2023-02-07T14:19:54;5.60;62.50
33271;DHT22;53180;51.344;6.152;2023-02-07T14:22:25;5.70;60.30
33271;DHT22;53180;51.344;6.152;2023-02-07T14:25:21;5.60;60.60
33271;DHT22;53180;51.344;6.152;2023-02-07T14:28:18;5.60;62.00
33271;DHT22;53180;51.344;6.152;2023-02-07T14:30:59;5.60;62.40
33271;DHT22;53180;51.344;6.152;2023-02-07T14:33:37;5.60;63.10
33271;DHT22;53180;51.344;6.152;2023-02-07T14:36:23;5.50;63.30
33271;DHT22;53180;51.344;6.152;2023-02-07T14:39:02;5.50;63.30
33271;DHT22;53180;51.344;6.152;2023-02-07T14:41:36;5.50;63.70
33271;DHT22;53180;51.344;6.152;2023-02-07T14:44:07;5.60;63.40
33271;DHT22;53180;51.344;6.152;2023-02-07T14:46:51;5.60;63.30
33271;DHT22;53180;51.344;6.152;2023-02-07T14:49:25;5.60;63.80
33271;DHT22;53180;51.344;6.152;2023-02-07T14:51:59;5.50;63.10
33271;DHT22;53180;51.344;6.152;2023-02-07T14:54:37;5.50;63.70
33271;DHT22;53180;51.344;6.152;2023-02-07T14:57:19;5.50;63.80
33271;DHT22;53180;51.344;6.152;2023-02-07T14:59:58;5.50;64.40
33271;DHT22;53180;51.344;6.152;2023-02-07T15:02:34;5.50;64.00
33271;DHT22;53180;51.344;6.152;2023-02-07T15:05:18;5.40;62.80
33271;DHT22;53180;51.344;6.152;2023-02-07T15:07:54;5.40;62.50
33271;DHT22;53180;51.344;6.152;2023-02-07T15:10:27;5.30;62.40
33271;DHT22;53180;51.344;6.152;2023-02-07T15:12:58;5.30;62.70
33271;DHT22;53180;51.344;6.152;2023-02-07T15:15:28;5.20;63.30
33271;DHT22;53180;51.344;6.152;2023-02-07T15:18:00;5.30;63.60
33271;DHT22;53180;51.344;6.152;2023-02-07T15:20:29;5.30;62.30
33271;DHT22;53180;51.344;6.152;2023-02-07T15:23:01;5.20;63.50
33271;DHT22;53180;51.344;6.152;2023-02-07T15:25:30;5.20;63.60
33271;DHT22;53180;51.344;6.152;2023-02-07T15:28:02;5.20;62.00
33271;DHT22;53180;51.344;6.152;2023-02-07T15:30:56;5.20;61.30
33271;DHT22;53180;51.344;6.152;2023-02-07T15:33:28;5.10;60.00
33271;DHT22;53180;51.344;6.152;2023-02-07T15:36:24;5.10;59.70
33271;DHT22;53180;51.344;6.152;2023-02-07T15:38:55;5.10;60.10
33271;DHT22;53180;51.344;6.152;2023-02-07T15:41:25;5.00;60.00
33271;DHT22;53180;51.344;6.152;2023-02-07T15:43:59;5.00;60.60
33271;DHT22;53180;51.344;6.152;2023-02-07T15:46:43;4.90;61.40
33271;DHT22;53180;51.344;6.152;2023-02-07T15:49:25;4.80;61.00
33271;DHT22;53180;51.344;6.152;2023-02-07T15:52:12;4.80;61.60
33271;DHT22;53180;51.344;6.152;2023-02-07T15:54:44;4.80;61.80
33271;DHT22;53180;51.344;6.152;2023-02-07T15:57:21;4.80;61.70
33271;DHT22;53180;51.344;6.152;2023-02-07T15:59:53;4.80;61.60
33271;DHT22;53180;51.344;6.152;2023-02-07T16:02:26;4.70;61.20
33271;DHT22;53180;51.344;6.152;2023-02-07T16:04:57;4.70;61.20
33271;DHT22;53180;51.344;6.152;2023-02-07T16:07:26;4.70;62.10
33271;DHT22;53180;51.344;6.152;2023-02-07T16:09:55;4.60;62.00
33271;DHT22;53180;51.344;6.152;2023-02-07T16:12:43;4.60;62.40
33271;DHT22;53180;51.344;6.152;2023-02-07T16:15:28;4.50;62.80
33271;DHT22;53180;51.344;6.152;2023-02-07T16:18:00;4.50;63.80
33271;DHT22;53180;51.344;6.152;2023-02-07T16:20:32;4.40;64.40
33271;DHT22;53180;51.344;6.152;2023-02-07T16:23:05;4.30;64.90
33271;DHT22;53180;51.344;6.152;2023-02-07T16:25:35;4.30;65.00